sensor_id;sensor_type;location;lat;lon;timestamp;P1;durP1;ratioP1;P2;durP2;ratioP2
40967;SDS011;57377;45.130;6.038;2023-04-25T00:00:35;4.28;;;2.30;;
40967;SDS011;57377;45.130;6.038;2023-04-25T00:03:00;6.78;;;1.70;;
40967;SDS011;57377;45.130;6.038;2023-04-25T00:05:26;4.78;;;1.73;;
40967;SDS011;57377;45.130;6.038;2023-04-25T00:07:51;9.52;;;2.28;;
40967;SDS011;57377;45.130;6.038;2023-04-25T00:10:17;8.45;;;1.45;;
40967;SDS011;57377;45.130;6.038;2023-04-25T00:12:43;3.85;;;1.15;;
40967;SDS011;57377;45.130;6.038;2023-04-25T00:15:09;5.40;;;1.27;;
40967;SDS011;57377;45.130;6.038;2023-04-25T00:17:35;6.78;;;1.73;;
40967;SDS011;57377;45.130;6.038;2023-04-25T00:20:03;5.55;;;1.50;;
40967;SDS011;57377;45.130;6.038;2023-04-25T00:22:34;4.20;;;1.58;;
40967;SDS011;57377;45.130;6.038;2023-04-25T00:25:02;6.43;;;1.83;;
40967;SDS011;57377;45.130;6.038;2023-04-25T00:27:28;15.15;;;1.98;;
40967;SDS011;57377;45.130;6.038;2023-04-25T00:29:53;4.65;;;1.17;;
40967;SDS011;57377;45.130;6.038;2023-04-25T00:32:19;4.18;;;1.17;;
40967;SDS011;57377;45.130;6.038;2023-04-25T00:34:44;3.78;;;1.40;;
40967;SDS011;57377;45.130;6.038;2023-04-25T00:37:10;3.78;;;1.50;;
40967;SDS011;57377;45.130;6.038;2023-04-25T00:39:35;6.07;;;1.40;;
40967;SDS011;57377;45.130;6.038;2023-04-25T00:42:00;10.80;;;5.53;;
40967;SDS011;57377;45.130;6.038;2023-04-25T00:44:27;5.65;;;2.65;;
40967;SDS011;57377;45.130;6.038;2023-04-25T00:46:55;6.57;;;1.83;;
40967;SDS011;57377;45.130;6.038;2023-04-25T00:49:20;6.07;;;1.98;;
40967;SDS011;57377;45.130;6.038;2023-04-25T00:51:46;7.85;;;2.60;;
40967;SDS011;57377;45.130;6.038;2023-04-25T00:54:12;6.45;;;1.80;;
40967;SDS011;57377;45.130;6.038;2023-04-25T00:56:37;3.47;;;1.67;;
40967;SDS011;57377;45.130;6.038;2023-04-25T00:59:03;7.10;;;2.00;;
40967;SDS011;57377;45.130;6.038;2023-04-25T01:01:29;3.90;;;1.50;;
40967;SDS011;57377;45.130;6.038;2023-04-25T01:03:56;4.45;;;1.83;;
40967;SDS011;57377;45.130;6.038;2023-04-25T01:08:49;6.45;;;1.65;;
40967;SDS011;57377;45.130;6.038;2023-04-25T01:11:14;5.47;;;1.55;;
40967;SDS011;57377;45.130;6.038;2023-04-25T01:13:40;5.00;;;2.00;;
40967;SDS011;57377;45.130;6.038;2023-04-25T01:16:05;5.38;;;2.00;;
40967;SDS011;57377;45.130;6.038;2023-04-25T01:18:31;4.18;;;1.83;;
40967;SDS011;57377;45.130;6.038;2023-04-25T01:20:56;9.23;;;2.42;;
40967;SDS011;57377;45.130;6.038;2023-04-25T01:23:41;4.57;;;1.70;;
40967;SDS011;57377;45.130;6.038;2023-04-25T01:26:08;6.47;;;1.67;;
40967;SDS011;57377;45.130;6.038;2023-04-25T01:28:34;3.85;;;1.80;;
40967;SDS011;57377;45.130;6.038;2023-04-25T01:31:00;4.32;;;2.05;;
40967;SDS011;57377;45.130;6.038;2023-04-25T01:33:26;8.38;;;1.90;;
40967;SDS011;57377;45.130;6.038;2023-04-25T01:35:51;8.13;;;2.65;;
40967;SDS011;57377;45.130;6.038;2023-04-25T01:38:17;9.02;;;1.92;;
40967;SDS011;57377;45.130;6.038;2023-04-25T01:40:42;2.65;;;1.40;;
40967;SDS011;57377;45.130;6.038;2023-04-25T01:43:10;3.67;;;2.10;;
40967;SDS011;57377;45.130;6.038;2023-04-25T01:45:37;5.40;;;1.90;;
40967;SDS011;57377;45.130;6.038;2023-04-25T01:48:06;5.00;;;1.83;;
40967;SDS011;57377;45.130;6.038;2023-04-25T01:50:35;8.38;;;1.70;;
40967;SDS011;57377;45.130;6.038;2023-04-25T01:53:00;2.95;;;2.13;;
40967;SDS011;57377;45.130;6.038;2023-04-25T01:55:27;8.43;;;2.00;;
40967;SDS011;57377;45.130;6.038;2023-04-25T01:57:52;6.00;;;1.63;;
40967;SDS011;57377;45.130;6.038;2023-04-25T02:00:18;7.18;;;2.03;;
40967;SDS011;57377;45.130;6.038;2023-04-25T02:02:43;3.17;;;1.55;;
40967;SDS011;57377;45.130;6.038;2023-04-25T02:05:08;5.85;;;1.55;;
40967;SDS011;57377;45.130;6.038;2023-04-25T02:07:34;5.90;;;1.58;;
40967;SDS011;57377;45.130;6.038;2023-04-25T02:09:59;2.92;;;1.40;;
40967;SDS011;57377;45.130;6.038;2023-04-25T02:12:25;3.88;;;1.70;;
40967;SDS011;57377;45.130;6.038;2023-04-25T02:14:51;4.90;;;1.50;;
40967;SDS011;57377;45.130;6.038;2023-04-25T02:17:16;2.25;;;1.65;;
40967;SDS011;57377;45.130;6.038;2023-04-25T02:19:42;5.35;;;1.67;;
40967;SDS011;57377;45.130;6.038;2023-04-25T02:22:08;8.18;;;2.00;;
40967;SDS011;57377;45.130;6.038;2023-04-25T02:24:33;5.55;;;1.65;;
40967;SDS011;57377;45.130;6.038;2023-04-25T02:26:59;3.45;;;1.58;;
40967;SDS011;57377;45.130;6.038;2023-04-25T02:29:25;3.90;;;2.08;;
40967;SDS011;57377;45.130;6.038;2023-04-25T02:31:50;6.47;;;1.70;;
40967;SDS011;57377;45.130;6.038;2023-04-25T02:34:16;8.70;;;1.70;;
40967;SDS011;57377;45.130;6.038;2023-04-25T02:36:41;5.82;;;1.50;;
40967;SDS011;57377;45.130;6.038;2023-04-25T02:39:06;2.97;;;1.65;;
40967;SDS011;57377;45.130;6.038;2023-04-25T02:41:32;3.13;;;1.70;;
40967;SDS011;57377;45.130;6.038;2023-04-25T02:43:57;6.85;;;1.52;;
40967;SDS011;57377;45.130;6.038;2023-04-25T02:46:22;3.58;;;1.75;;
40967;SDS011;57377;45.130;6.038;2023-04-25T02:48:48;6.45;;;1.50;;
40967;SDS011;57377;45.130;6.038;2023-04-25T02:51:13;2.85;;;1.13;;
40967;SDS011;57377;45.130;6.038;2023-04-25T02:53:41;3.38;;;2.08;;
40967;SDS011;57377;45.130;6.038;2023-04-25T02:56:06;4.07;;;1.83;;
40967;SDS011;57377;45.130;6.038;2023-04-25T02:58:31;5.07;;;1.60;;
40967;SDS011;57377;45.130;6.038;2023-04-25T03:00:57;3.00;;;1.60;;
40967;SDS011;57377;45.130;6.038;2023-04-25T03:03:22;6.10;;;1.70;;
40967;SDS011;57377;45.130;6.038;2023-04-25T03:05:48;8.25;;;2.75;;
40967;SDS011;57377;45.130;6.038;2023-04-25T03:08:15;2.50;;;1.35;;
40967;SDS011;57377;45.130;6.038;2023-04-25T03:10:41;4.78;;;1.67;;
40967;SDS011;57377;45.130;6.038;2023-04-25T03:13:06;4.60;;;1.70;;
40967;SDS011;57377;45.130;6.038;2023-04-25T03:15:31;5.00;;;1.83;;
40967;SDS011;57377;45.130;6.038;2023-04-25T03:17:57;9.70;;;1.73;;
40967;SDS011;57377;45.130;6.038;2023-04-25T03:20:22;4.45;;;2.08;;
40967;SDS011;57377;45.130;6.038;2023-04-25T03:22:47;5.22;;;1.67;;
40967;SDS011;57377;45.130;6.038;2023-04-25T03:25:13;6.45;;;1.95;;
40967;SDS011;57377;45.130;6.038;2023-04-25T03:27:38;8.80;;;1.65;;
40967;SDS011;57377;45.130;6.038;2023-04-25T03:30:04;3.25;;;1.50;;
40967;SDS011;57377;45.130;6.038;2023-04-25T03:32:30;2.97;;;1.80;;
40967;SDS011;57377;45.130;6.038;2023-04-25T03:34:55;4.00;;;1.95;;
40967;SDS011;57377;45.130;6.038;2023-04-25T03:37:20;3.45;;;2.08;;
40967;SDS011;57377;45.130;6.038;2023-04-25T03:39:46;4.25;;;1.70;;
40967;SDS011;57377;45.130;6.038;2023-04-25T03:42:11;4.13;;;1.75;;
40967;SDS011;57377;45.130;6.038;2023-04-25T03:44:37;3.80;;;1.98;;
40967;SDS011;57377;45.130;6.038;2023-04-25T03:47:02;2.95;;;1.40;;
40967;SDS011;57377;45.130;6.038;2023-04-25T03:49:27;3.65;;;2.03;;
40967;SDS011;57377;45.130;6.038;2023-04-25T03:51:53;10.65;;;2.80;;
40967;SDS011;57377;45.130;6.038;2023-04-25T03:54:18;2.40;;;1.30;;
40967;SDS011;57377;45.130;6.038;2023-04-25T03:56:43;6.72;;;2.22;;
40967;SDS011;57377;45.130;6.038;2023-04-25T03:59:09;4.82;;;1.80;;
40967;SDS011;57377;45.130;6.038;2023-04-25T04:01:34;4.30;;;1.70;;
40967;SDS011;57377;45.130;6.038;2023-04-25T04:04:00;6.78;;;1.80;;
40967;SDS011;57377;45.130;6.038;2023-04-25T04:06:25;9.13;;;2.85;;
40967;SDS011;57377;45.130;6.038;2023-04-25T04:08:51;4.72;;;2.60;;
40967;SDS011;57377;45.130;6.038;2023-04-25T04:11:17;11.70;;;4.72;;
40967;SDS011;57377;45.130;6.038;2023-04-25T04:13:42;5.85;;;3.10;;
40967;SDS011;57377;45.130;6.038;2023-04-25T04:16:07;10.23;;;3.63;;
40967;SDS011;57377;45.130;6.038;2023-04-25T04:18:33;11.15;;;2.97;;
40967;SDS011;57377;45.130;6.038;2023-04-25T04:20:59;7.72;;;2.20;;
40967;SDS011;57377;45.130;6.038;2023-04-25T04:23:24;7.03;;;2.35;;
40967;SDS011;57377;45.130;6.038;2023-04-25T04:28:17;6.45;;;2.03;;
40967;SDS011;57377;45.130;6.038;2023-04-25T04:30:42;11.25;;;2.15;;
40967;SDS011;57377;45.130;6.038;2023-04-25T04:33:12;4.15;;;2.10;;
40967;SDS011;57377;45.130;6.038;2023-04-25T04:35:37;5.07;;;2.10;;
40967;SDS011;57377;45.130;6.038;2023-04-25T04:38:03;4.78;;;1.98;;
40967;SDS011;57377;45.130;6.038;2023-04-25T04:40:28;6.43;;;2.50;;
40967;SDS011;57377;45.130;6.038;2023-04-25T04:42:56;7.00;;;2.30;;
40967;SDS011;57377;45.130;6.038;2023-04-25T04:45:22;8.15;;;2.00;;
40967;SDS011;57377;45.130;6.038;2023-04-25T04:47:47;6.18;;;2.17;;
40967;SDS011;57377;45.130;6.038;2023-04-25T04:50:13;4.45;;;1.70;;
40967;SDS011;57377;45.130;6.038;2023-04-25T04:52:40;6.38;;;2.30;;
40967;SDS011;57377;45.130;6.038;2023-04-25T04:55:05;6.03;;;2.20;;
40967;SDS011;57377;45.130;6.038;2023-04-25T04:57:31;10.05;;;2.38;;
40967;SDS011;57377;45.130;6.038;2023-04-25T04:59:58;3.00;;;1.92;;
40967;SDS011;57377;45.130;6.038;2023-04-25T05:02:24;4.13;;;1.90;;
40967;SDS011;57377;45.130;6.038;2023-04-25T05:04:50;5.78;;;1.85;;
40967;SDS011;57377;45.130;6.038;2023-04-25T05:07:16;4.30;;;2.22;;
40967;SDS011;57377;45.130;6.038;2023-04-25T05:09:42;7.28;;;2.55;;
40967;SDS011;57377;45.130;6.038;2023-04-25T05:12:09;9.20;;;2.00;;
40967;SDS011;57377;45.130;6.038;2023-04-25T05:14:35;4.43;;;2.20;;
40967;SDS011;57377;45.130;6.038;2023-04-25T05:17:00;3.72;;;2.17;;
40967;SDS011;57377;45.130;6.038;2023-04-25T05:19:26;4.78;;;2.05;;
40967;SDS011;57377;45.130;6.038;2023-04-25T05:21:51;9.32;;;2.35;;
40967;SDS011;57377;45.130;6.038;2023-04-25T05:24:17;3.50;;;2.03;;
40967;SDS011;57377;45.130;6.038;2023-04-25T05:26:42;9.15;;;3.00;;
40967;SDS011;57377;45.130;6.038;2023-04-25T05:29:07;6.25;;;1.80;;
40967;SDS011;57377;45.130;6.038;2023-04-25T05:31:34;4.97;;;2.42;;
40967;SDS011;57377;45.130;6.038;2023-04-25T05:34:01;5.88;;;2.45;;
40967;SDS011;57377;45.130;6.038;2023-04-25T05:36:26;4.60;;;2.05;;
40967;SDS011;57377;45.130;6.038;2023-04-25T05:38:52;6.07;;;2.10;;
40967;SDS011;57377;45.130;6.038;2023-04-25T05:41:17;6.22;;;2.22;;
40967;SDS011;57377;45.130;6.038;2023-04-25T05:43:43;7.70;;;2.00;;
40967;SDS011;57377;45.130;6.038;2023-04-25T05:46:11;5.28;;;2.30;;
40967;SDS011;57377;45.130;6.038;2023-04-25T05:48:37;13.35;;;2.83;;
40967;SDS011;57377;45.130;6.038;2023-04-25T05:51:03;6.55;;;2.22;;
40967;SDS011;57377;45.130;6.038;2023-04-25T05:53:28;7.22;;;2.30;;
40967;SDS011;57377;45.130;6.038;2023-04-25T05:55:54;5.18;;;2.28;;
40967;SDS011;57377;45.130;6.038;2023-04-25T05:58:19;4.70;;;2.00;;
40967;SDS011;57377;45.130;6.038;2023-04-25T06:00:45;7.97;;;3.03;;
40967;SDS011;57377;45.130;6.038;2023-04-25T06:03:11;8.23;;;2.63;;
40967;SDS011;57377;45.130;6.038;2023-04-25T06:05:38;8.75;;;2.83;;
40967;SDS011;57377;45.130;6.038;2023-04-25T06:08:03;8.43;;;3.03;;
40967;SDS011;57377;45.130;6.038;2023-04-25T06:10:29;6.15;;;2.47;;
40967;SDS011;57377;45.130;6.038;2023-04-25T06:12:54;7.72;;;2.80;;
40967;SDS011;57377;45.130;6.038;2023-04-25T06:15:19;6.28;;;3.20;;
40967;SDS011;57377;45.130;6.038;2023-04-25T06:17:45;12.82;;;3.15;;
40967;SDS011;57377;45.130;6.038;2023-04-25T06:20:10;6.97;;;3.15;;
40967;SDS011;57377;45.130;6.038;2023-04-25T06:22:36;7.70;;;3.28;;
40967;SDS011;57377;45.130;6.038;2023-04-25T06:25:01;7.28;;;2.72;;
40967;SDS011;57377;45.130;6.038;2023-04-25T06:27:28;9.38;;;2.90;;
40967;SDS011;57377;45.130;6.038;2023-04-25T06:29:54;7.15;;;2.78;;
40967;SDS011;57377;45.130;6.038;2023-04-25T06:32:19;7.85;;;2.95;;
40967;SDS011;57377;45.130;6.038;2023-04-25T06:34:45;8.07;;;2.58;;
40967;SDS011;57377;45.130;6.038;2023-04-25T06:37:10;9.10;;;3.40;;
40967;SDS011;57377;45.130;6.038;2023-04-25T06:39:35;9.20;;;2.67;;
40967;SDS011;57377;45.130;6.038;2023-04-25T06:42:01;9.48;;;3.03;;
40967;SDS011;57377;45.130;6.038;2023-04-25T06:44:26;8.07;;;2.85;;
40967;SDS011;57377;45.130;6.038;2023-04-25T06:46:54;12.32;;;3.33;;
40967;SDS011;57377;45.130;6.038;2023-04-25T06:49:19;9.88;;;3.40;;
40967;SDS011;57377;45.130;6.038;2023-04-25T06:51:45;11.57;;;3.63;;
40967;SDS011;57377;45.130;6.038;2023-04-25T06:54:10;12.13;;;3.83;;
40967;SDS011;57377;45.130;6.038;2023-04-25T06:56:35;10.27;;;4.05;;
40967;SDS011;57377;45.130;6.038;2023-04-25T06:59:01;12.07;;;3.78;;
40967;SDS011;57377;45.130;6.038;2023-04-25T07:01:26;17.95;;;4.28;;
40967;SDS011;57377;45.130;6.038;2023-04-25T07:03:52;19.45;;;4.47;;
40967;SDS011;57377;45.130;6.038;2023-04-25T07:06:17;9.95;;;3.92;;
40967;SDS011;57377;45.130;6.038;2023-04-25T07:08:42;12.13;;;3.50;;
40967;SDS011;57377;45.130;6.038;2023-04-25T07:11:08;6.88;;;3.38;;
40967;SDS011;57377;45.130;6.038;2023-04-25T07:13:33;9.05;;;3.72;;
40967;SDS011;57377;45.130;6.038;2023-04-25T07:15:59;13.73;;;3.75;;
40967;SDS011;57377;45.130;6.038;2023-04-25T07:18:24;14.35;;;4.40;;
40967;SDS011;57377;45.130;6.038;2023-04-25T07:20:50;10.63;;;4.28;;
40967;SDS011;57377;45.130;6.038;2023-04-25T07:23:15;8.70;;;3.65;;
40967;SDS011;57377;45.130;6.038;2023-04-25T07:25:41;12.68;;;4.93;;
40967;SDS011;57377;45.130;6.038;2023-04-25T07:28:06;8.43;;;4.25;;
40967;SDS011;57377;45.130;6.038;2023-04-25T07:30:31;13.20;;;4.75;;
40967;SDS011;57377;45.130;6.038;2023-04-25T07:32:57;11.10;;;3.58;;
40967;SDS011;57377;45.130;6.038;2023-04-25T07:35:22;12.95;;;3.78;;
40967;SDS011;57377;45.130;6.038;2023-04-25T07:37:47;6.93;;;3.67;;
40967;SDS011;57377;45.130;6.038;2023-04-25T07:40:13;6.60;;;3.22;;
40967;SDS011;57377;45.130;6.038;2023-04-25T07:45:06;15.55;;;4.43;;
40967;SDS011;57377;45.130;6.038;2023-04-25T07:47:32;14.70;;;3.95;;
40967;SDS011;57377;45.130;6.038;2023-04-25T07:49:57;14.82;;;4.05;;
40967;SDS011;57377;45.130;6.038;2023-04-25T07:52:22;18.42;;;5.47;;
40967;SDS011;57377;45.130;6.038;2023-04-25T07:54:48;10.38;;;3.75;;
40967;SDS011;57377;45.130;6.038;2023-04-25T07:57:13;11.18;;;3.88;;
40967;SDS011;57377;45.130;6.038;2023-04-25T07:59:39;10.57;;;4.15;;
40967;SDS011;57377;45.130;6.038;2023-04-25T08:02:05;14.32;;;3.58;;
40967;SDS011;57377;45.130;6.038;2023-04-25T08:04:30;14.73;;;3.55;;
40967;SDS011;57377;45.130;6.038;2023-04-25T08:06:55;10.77;;;3.33;;
40967;SDS011;57377;45.130;6.038;2023-04-25T08:09:21;6.03;;;3.55;;
40967;SDS011;57377;45.130;6.038;2023-04-25T08:11:47;10.63;;;3.10;;
40967;SDS011;57377;45.130;6.038;2023-04-25T08:14:13;7.93;;;3.65;;
40967;SDS011;57377;45.130;6.038;2023-04-25T08:16:38;12.75;;;3.40;;
40967;SDS011;57377;45.130;6.038;2023-04-25T08:19:04;10.85;;;3.65;;
40967;SDS011;57377;45.130;6.038;2023-04-25T08:21:29;6.88;;;3.42;;
40967;SDS011;57377;45.130;6.038;2023-04-25T08:23:56;8.95;;;3.58;;
40967;SDS011;57377;45.130;6.038;2023-04-25T08:26:23;12.05;;;3.75;;
40967;SDS011;57377;45.130;6.038;2023-04-25T08:28:48;9.75;;;3.67;;
40967;SDS011;57377;45.130;6.038;2023-04-25T08:31:13;8.40;;;3.28;;
40967;SDS011;57377;45.130;6.038;2023-04-25T08:33:39;8.73;;;3.83;;
40967;SDS011;57377;45.130;6.038;2023-04-25T08:36:05;10.65;;;3.20;;
40967;SDS011;57377;45.130;6.038;2023-04-25T08:38:31;6.00;;;3.00;;
40967;SDS011;57377;45.130;6.038;2023-04-25T08:40:57;8.70;;;3.60;;
40967;SDS011;57377;45.130;6.038;2023-04-25T08:43:25;9.15;;;3.50;;
40967;SDS011;57377;45.130;6.038;2023-04-25T08:45:51;14.88;;;3.33;;
40967;SDS011;57377;45.130;6.038;2023-04-25T08:48:18;4.57;;;2.72;;
40967;SDS011;57377;45.130;6.038;2023-04-25T08:53:16;6.97;;;2.53;;
40967;SDS011;57377;45.130;6.038;2023-04-25T08:55:46;4.65;;;2.00;;
40967;SDS011;57377;45.130;6.038;2023-04-25T08:58:13;4.78;;;2.35;;
40967;SDS011;57377;45.130;6.038;2023-04-25T09:00:39;7.30;;;2.60;;
40967;SDS011;57377;45.130;6.038;2023-04-25T09:03:05;6.63;;;2.20;;
40967;SDS011;57377;45.130;6.038;2023-04-25T09:05:32;5.22;;;1.90;;
40967;SDS011;57377;45.130;6.038;2023-04-25T09:07:58;6.45;;;2.30;;
40967;SDS011;57377;45.130;6.038;2023-04-25T09:10:23;8.63;;;2.50;;
40967;SDS011;57377;45.130;6.038;2023-04-25T09:13:02;3.50;;;2.08;;
40967;SDS011;57377;45.130;6.038;2023-04-25T09:15:31;4.07;;;1.80;;
40967;SDS011;57377;45.130;6.038;2023-04-25T09:17:58;5.00;;;1.70;;
40967;SDS011;57377;45.130;6.038;2023-04-25T09:20:24;4.30;;;1.90;;
40967;SDS011;57377;45.130;6.038;2023-04-25T09:23:00;5.28;;;1.70;;
40967;SDS011;57377;45.130;6.038;2023-04-25T09:25:34;3.50;;;1.80;;
40967;SDS011;57377;45.130;6.038;2023-04-25T09:28:08;4.03;;;1.90;;
40967;SDS011;57377;45.130;6.038;2023-04-25T09:30:34;5.50;;;1.70;;
40967;SDS011;57377;45.130;6.038;2023-04-25T09:33:04;6.28;;;1.58;;
40967;SDS011;57377;45.130;6.038;2023-04-25T09:35:32;4.10;;;1.92;;
40967;SDS011;57377;45.130;6.038;2023-04-25T09:38:01;6.43;;;1.90;;
40967;SDS011;57377;45.130;6.038;2023-04-25T09:40:26;3.55;;;1.30;;
40967;SDS011;57377;45.130;6.038;2023-04-25T09:42:52;3.05;;;1.63;;
40967;SDS011;57377;45.130;6.038;2023-04-25T09:45:17;3.90;;;1.27;;
40967;SDS011;57377;45.130;6.038;2023-04-25T09:47:42;5.00;;;2.20;;
40967;SDS011;57377;45.130;6.038;2023-04-25T09:50:14;4.10;;;1.52;;
40967;SDS011;57377;45.130;6.038;2023-04-25T09:52:40;3.00;;;1.13;;
40967;SDS011;57377;45.130;6.038;2023-04-25T09:55:06;2.22;;;1.42;;
40967;SDS011;57377;45.130;6.038;2023-04-25T09:57:32;3.85;;;1.33;;
40967;SDS011;57377;45.130;6.038;2023-04-25T09:59:58;4.82;;;1.45;;
40967;SDS011;57377;45.130;6.038;2023-04-25T10:02:26;4.00;;;1.77;;
40967;SDS011;57377;45.130;6.038;2023-04-25T10:04:54;3.38;;;1.73;;
40967;SDS011;57377;45.130;6.038;2023-04-25T10:07:22;3.08;;;1.50;;
40967;SDS011;57377;45.130;6.038;2023-04-25T10:09:50;4.70;;;1.70;;
40967;SDS011;57377;45.130;6.038;2023-04-25T10:12:20;5.45;;;1.70;;
40967;SDS011;57377;45.130;6.038;2023-04-25T10:14:47;4.97;;;1.50;;
40967;SDS011;57377;45.130;6.038;2023-04-25T10:17:12;4.00;;;2.30;;
40967;SDS011;57377;45.130;6.038;2023-04-25T10:19:39;7.18;;;2.38;;
40967;SDS011;57377;45.130;6.038;2023-04-25T10:22:07;5.28;;;1.73;;
40967;SDS011;57377;45.130;6.038;2023-04-25T10:24:36;5.03;;;1.70;;
40967;SDS011;57377;45.130;6.038;2023-04-25T10:27:04;7.28;;;2.05;;
40967;SDS011;57377;45.130;6.038;2023-04-25T10:29:29;6.50;;;1.50;;
40967;SDS011;57377;45.130;6.038;2023-04-25T10:31:55;4.53;;;1.75;;
40967;SDS011;57377;45.130;6.038;2023-04-25T10:34:23;2.63;;;1.40;;
40967;SDS011;57377;45.130;6.038;2023-04-25T10:36:50;3.38;;;1.27;;
40967;SDS011;57377;45.130;6.038;2023-04-25T10:39:24;3.42;;;1.50;;
40967;SDS011;57377;45.130;6.038;2023-04-25T10:41:52;7.30;;;2.00;;
40967;SDS011;57377;45.130;6.038;2023-04-25T10:44:20;7.22;;;1.80;;
40967;SDS011;57377;45.130;6.038;2023-04-25T10:46:45;4.05;;;1.42;;
40967;SDS011;57377;45.130;6.038;2023-04-25T10:49:11;4.57;;;1.60;;
40967;SDS011;57377;45.130;6.038;2023-04-25T10:52:10;5.78;;;1.63;;
40967;SDS011;57377;45.130;6.038;2023-04-25T10:54:39;4.18;;;1.80;;
40967;SDS011;57377;45.130;6.038;2023-04-25T10:57:05;5.50;;;1.80;;
40967;SDS011;57377;45.130;6.038;2023-04-25T10:59:31;4.68;;;1.88;;
40967;SDS011;57377;45.130;6.038;2023-04-25T11:01:56;5.03;;;1.73;;
40967;SDS011;57377;45.130;6.038;2023-04-25T11:04:28;8.93;;;1.80;;
40967;SDS011;57377;45.130;6.038;2023-04-25T11:09:43;5.50;;;1.33;;
40967;SDS011;57377;45.130;6.038;2023-04-25T11:12:10;6.53;;;1.92;;
40967;SDS011;57377;45.130;6.038;2023-04-25T11:14:36;4.20;;;1.52;;
40967;SDS011;57377;45.130;6.038;2023-04-25T11:17:02;2.80;;;1.50;;
40967;SDS011;57377;45.130;6.038;2023-04-25T11:19:27;1.88;;;1.10;;
40967;SDS011;57377;45.130;6.038;2023-04-25T11:22:00;3.65;;;1.60;;
40967;SDS011;57377;45.130;6.038;2023-04-25T11:24:30;5.40;;;2.03;;
40967;SDS011;57377;45.130;6.038;2023-04-25T11:27:00;3.10;;;1.60;;
40967;SDS011;57377;45.130;6.038;2023-04-25T11:29:27;3.63;;;1.95;;
40967;SDS011;57377;45.130;6.038;2023-04-25T11:31:54;4.70;;;1.58;;
40967;SDS011;57377;45.130;6.038;2023-04-25T11:34:22;2.83;;;1.88;;
40967;SDS011;57377;45.130;6.038;2023-04-25T11:36:49;7.35;;;1.70;;
40967;SDS011;57377;45.130;6.038;2023-04-25T11:39:17;5.47;;;1.88;;
40967;SDS011;57377;45.130;6.038;2023-04-25T11:41:43;5.18;;;1.73;;
40967;SDS011;57377;45.130;6.038;2023-04-25T11:44:09;2.90;;;1.60;;
40967;SDS011;57377;45.130;6.038;2023-04-25T11:46:34;5.53;;;1.58;;
40967;SDS011;57377;45.130;6.038;2023-04-25T11:49:00;8.88;;;2.58;;
40967;SDS011;57377;45.130;6.038;2023-04-25T11:51:25;6.35;;;2.42;;
40967;SDS011;57377;45.130;6.038;2023-04-25T11:53:51;5.32;;;1.77;;
40967;SDS011;57377;45.130;6.038;2023-04-25T11:56:16;2.08;;;1.45;;
40967;SDS011;57377;45.130;6.038;2023-04-25T12:01:49;3.33;;;1.58;;
40967;SDS011;57377;45.130;6.038;2023-04-25T12:04:16;4.57;;;1.30;;
40967;SDS011;57377;45.130;6.038;2023-04-25T12:06:43;6.35;;;1.90;;
40967;SDS011;57377;45.130;6.038;2023-04-25T12:09:12;4.20;;;1.55;;
40967;SDS011;57377;45.130;6.038;2023-04-25T12:11:42;5.63;;;1.50;;
40967;SDS011;57377;45.130;6.038;2023-04-25T12:14:12;5.70;;;1.50;;
40967;SDS011;57377;45.130;6.038;2023-04-25T12:16:52;5.40;;;1.90;;
40967;SDS011;57377;45.130;6.038;2023-04-25T12:19:20;7.75;;;1.70;;
40967;SDS011;57377;45.130;6.038;2023-04-25T12:21:46;8.02;;;1.90;;
40967;SDS011;57377;45.130;6.038;2023-04-25T12:24:16;7.55;;;1.50;;
40967;SDS011;57377;45.130;6.038;2023-04-25T12:26:53;7.25;;;1.75;;
40967;SDS011;57377;45.130;6.038;2023-04-25T12:29:25;6.65;;;2.00;;
40967;SDS011;57377;45.130;6.038;2023-04-25T12:31:53;3.95;;;1.75;;
40967;SDS011;57377;45.130;6.038;2023-04-25T12:34:19;5.88;;;1.70;;
40967;SDS011;57377;45.130;6.038;2023-04-25T12:36:46;7.10;;;2.05;;
40967;SDS011;57377;45.130;6.038;2023-04-25T12:39:18;9.27;;;2.00;;
40967;SDS011;57377;45.130;6.038;2023-04-25T12:41:46;3.03;;;1.38;;
40967;SDS011;57377;45.130;6.038;2023-04-25T12:44:12;4.38;;;1.75;;
40967;SDS011;57377;45.130;6.038;2023-04-25T12:46:38;3.17;;;1.73;;
40967;SDS011;57377;45.130;6.038;2023-04-25T12:49:04;3.50;;;1.60;;
40967;SDS011;57377;45.130;6.038;2023-04-25T12:51:32;5.97;;;1.80;;
40967;SDS011;57377;45.130;6.038;2023-04-25T12:53:58;15.93;;;1.85;;
40967;SDS011;57377;45.130;6.038;2023-04-25T12:56:25;47.22;;;2.20;;
40967;SDS011;57377;45.130;6.038;2023-04-25T12:58:51;7.70;;;2.00;;
40967;SDS011;57377;45.130;6.038;2023-04-25T13:01:36;8.73;;;1.92;;
40967;SDS011;57377;45.130;6.038;2023-04-25T13:04:02;6.63;;;2.03;;
40967;SDS011;57377;45.130;6.038;2023-04-25T13:06:28;11.02;;;2.00;;
40967;SDS011;57377;45.130;6.038;2023-04-25T13:08:55;4.78;;;1.90;;
40967;SDS011;57377;45.130;6.038;2023-04-25T13:11:20;30.10;;;3.30;;
40967;SDS011;57377;45.130;6.038;2023-04-25T13:13:45;8.10;;;1.90;;
40967;SDS011;57377;45.130;6.038;2023-04-25T13:16:11;17.58;;;2.22;;
40967;SDS011;57377;45.130;6.038;2023-04-25T13:18:38;7.43;;;2.20;;
40967;SDS011;57377;45.130;6.038;2023-04-25T13:21:04;4.72;;;1.80;;
40967;SDS011;57377;45.130;6.038;2023-04-25T13:23:30;11.60;;;1.80;;
40967;SDS011;57377;45.130;6.038;2023-04-25T13:25:56;5.65;;;1.58;;
40967;SDS011;57377;45.130;6.038;2023-04-25T13:28:25;6.82;;;1.70;;
40967;SDS011;57377;45.130;6.038;2023-04-25T13:30:51;7.55;;;1.65;;
40967;SDS011;57377;45.130;6.038;2023-04-25T13:33:16;4.45;;;1.90;;
40967;SDS011;57377;45.130;6.038;2023-04-25T13:35:42;4.97;;;1.48;;
40967;SDS011;57377;45.130;6.038;2023-04-25T13:38:08;5.60;;;1.90;;
40967;SDS011;57377;45.130;6.038;2023-04-25T13:40:33;3.75;;;1.42;;
40967;SDS011;57377;45.130;6.038;2023-04-25T13:42:59;4.00;;;1.58;;
40967;SDS011;57377;45.130;6.038;2023-04-25T13:45:25;6.60;;;1.90;;
40967;SDS011;57377;45.130;6.038;2023-04-25T13:47:50;3.90;;;1.67;;
40967;SDS011;57377;45.130;6.038;2023-04-25T13:50:16;6.97;;;1.85;;
40967;SDS011;57377;45.130;6.038;2023-04-25T13:52:41;5.25;;;1.98;;
40967;SDS011;57377;45.130;6.038;2023-04-25T13:55:07;9.38;;;1.77;;
40967;SDS011;57377;45.130;6.038;2023-04-25T13:57:34;6.60;;;1.40;;
40967;SDS011;57377;45.130;6.038;2023-04-25T14:00:00;9.30;;;1.93;;
40967;SDS011;57377;45.130;6.038;2023-04-25T14:02:29;3.83;;;1.70;;
40967;SDS011;57377;45.130;6.038;2023-04-25T14:04:55;7.57;;;1.52;;
40967;SDS011;57377;45.130;6.038;2023-04-25T14:07:20;5.53;;;1.65;;
40967;SDS011;57377;45.130;6.038;2023-04-25T14:09:46;6.38;;;2.00;;
40967;SDS011;57377;45.130;6.038;2023-04-25T14:12:11;4.68;;;1.95;;
40967;SDS011;57377;45.130;6.038;2023-04-25T14:14:37;4.13;;;1.48;;
40967;SDS011;57377;45.130;6.038;2023-04-25T14:17:03;14.18;;;2.70;;
40967;SDS011;57377;45.130;6.038;2023-04-25T14:19:28;12.20;;;1.65;;
40967;SDS011;57377;45.130;6.038;2023-04-25T14:21:54;11.43;;;1.73;;
40967;SDS011;57377;45.130;6.038;2023-04-25T14:24:20;6.55;;;1.50;;
40967;SDS011;57377;45.130;6.038;2023-04-25T14:26:45;11.73;;;2.15;;
40967;SDS011;57377;45.130;6.038;2023-04-25T14:29:11;6.43;;;1.40;;
40967;SDS011;57377;45.130;6.038;2023-04-25T14:31:37;5.13;;;1.33;;
40967;SDS011;57377;45.130;6.038;2023-04-25T14:34:03;4.18;;;1.52;;
40967;SDS011;57377;45.130;6.038;2023-04-25T14:36:29;3.92;;;1.40;;
40967;SDS011;57377;45.130;6.038;2023-04-25T14:38:55;4.40;;;1.40;;
40967;SDS011;57377;45.130;6.038;2023-04-25T14:41:21;2.78;;;1.85;;
40967;SDS011;57377;45.130;6.038;2023-04-25T14:43:47;5.40;;;1.70;;
40967;SDS011;57377;45.130;6.038;2023-04-25T14:46:13;8.10;;;2.00;;
40967;SDS011;57377;45.130;6.038;2023-04-25T14:48:38;3.60;;;1.48;;
40967;SDS011;57377;45.130;6.038;2023-04-25T14:51:04;8.10;;;1.75;;
40967;SDS011;57377;45.130;6.038;2023-04-25T14:53:29;16.52;;;1.98;;
40967;SDS011;57377;45.130;6.038;2023-04-25T14:55:55;22.13;;;2.27;;